ADDS METAR Data INFO
IDs: Format: Raw Decoded Include TAF

Data at: 0354 UTC 17 Oct 2017

KRYW 170335Z AUTO 03006KT 10SM CLR 15/04 A3030 RMK AO2 T01530039
KRYW 170315Z AUTO 03007KT 10SM CLR 16/04 A3030 RMK AO2 T01560037
KRYW 170255Z AUTO 03007KT 10SM CLR 16/04 A3030 RMK AO2 T01580035
KRYW 170235Z AUTO 02006KT 10SM CLR 16/04 A3030 RMK AO2 T01600035
KRYW 170215Z AUTO 02006KT 10SM CLR 16/04 A3029 RMK AO2 T01640035
KRYW 170155Z AUTO 02006KT 10SM CLR 17/04 A3029 RMK AO2 T01680037
KRYW 170135Z AUTO 03006KT 10SM CLR 17/04 A3028 RMK AO2 T01710036
KRYW 170115Z AUTO 03005KT 10SM CLR 18/04 A3028 RMK AO2 T01750037
KRYW 170055Z AUTO 03005KT 10SM CLR 18/04 A3027 RMK AO2 T01750040
KRYW 170035Z AUTO 03004KT 10SM CLR 18/04 A3027 RMK AO2 T01800039
KRYW 170015Z AUTO 03005KT 10SM CLR 19/04 A3026 RMK AO2 T01850040
KRYW 162355Z AUTO 03005KT 10SM CLR 20/04 A3026 RMK AO2 T01950036 10240 20195
KRYW 162335Z AUTO 03004KT 10SM CLR 21/04 A3026 RMK AO2 T02080039
KRYW 162315Z AUTO 03004KT 10SM CLR 22/04 A3026 RMK AO2 T02200037
KRYW 162255Z AUTO 02006KT 10SM CLR 23/04 A3026 RMK AO2 T02250035
KRYW 162235Z AUTO 01006KT 10SM CLR 23/04 A3025 RMK AO2 T02300036
KRYW 162215Z AUTO 02007KT 10SM CLR 23/03 A3025 RMK AO2 T02330034
KRYW 162155Z AUTO 03006KT 10SM CLR 24/03 A3026 RMK AO2 T02350034
KRYW 162135Z AUTO 02008KT 340V040 10SM CLR 24/03 A3026 RMK AO2 T02350034
KRYW 162115Z AUTO 02006KT 10SM CLR 24/04 A3026 RMK AO2 T02360039
KRYW 162055Z AUTO 36010G14KT 10SM CLR 24/03 A3027 RMK AO2 T02350032
KRYW 162035Z AUTO 03008KT 10SM CLR 23/04 A3027 RMK AO2 T02330042
KRYW 162015Z AUTO 35010G15KT 320V020 10SM CLR 23/04 A3028 RMK AO2 T02290037
KRYW 161955Z AUTO 02010G14KT 10SM CLR 23/05 A3029 RMK AO2 T02280047
KRYW 161935Z AUTO 02008G14KT 340V060 10SM CLR 22/04 A3031 RMK AO2 T02240044
KRYW 161915Z AUTO 36004G14KT 10SM CLR 22/05 A3031 RMK AO2 T02170053
KRYW 161855Z AUTO 02005KT 10SM CLR 22/05 A3032 RMK AO2 T02160049
KRYW 161835Z AUTO 35009G14KT 10SM CLR 21/05 A3034 RMK AO2 T02100053
KRYW 161815Z AUTO 35008KT 310V030 10SM CLR 21/06 A3035 RMK AO2 T02080059
KRYW 161755Z AUTO 04008KT 010V080 10SM CLR 20/06 A3037 RMK AO2 T02020060 10202 20107
KRYW 161735Z AUTO 36005KT 10SM CLR 20/06 A3038 RMK AO2 T01980056
KRYW 161715Z AUTO 01003KT 10SM CLR 20/06 A3039 RMK AO2 T01960061
KRYW 161655Z AUTO 04007KT 10SM CLR 19/07 A3039 RMK AO2 T01900065
KRYW 161635Z AUTO 04008G14KT 10SM CLR 19/06 A3040 RMK AO2 T01850061
KRYW 161615Z AUTO 05006KT 350V090 10SM CLR 19/07 A3040 RMK AO2 T01880067
KRYW 161555Z AUTO 06008G15KT 10SM CLR 18/06 A3041 RMK AO2 T01760064
KRYW 161535Z AUTO 06008G15KT 10SM CLR 17/06 A3041 RMK AO2 T01700060
KRYW 161515Z AUTO 03009G15KT 10SM CLR 16/06 A3040 RMK AO2 T01610063
KRYW 161455Z AUTO 03010G16KT 10SM CLR 15/06 A3041 RMK AO2 T01540061
KRYW 161435Z AUTO 05009KT 10SM CLR 15/06 A3039 RMK AO2 T01490059
KRYW 161415Z AUTO 04009G14KT 350V070 10SM CLR 14/06 A3038 RMK AO2 T01370056
KRYW 161355Z AUTO 03010G15KT 10SM CLR 13/06 A3037 RMK AO2 T01270055
KRYW 161335Z AUTO 02010G17KT 10SM CLR 12/05 A3037 RMK AO2 T01200054
KRYW 161315Z AUTO 02008G17KT 10SM CLR 11/05 A3037 RMK AO2 T01140052
KRYW 161255Z AUTO 02009G15KT 10SM CLR 11/05 A3036 RMK AO2 T01100051
KRYW 161235Z AUTO 01008G16KT 330V030 10SM CLR 11/05 A3035 RMK AO2 T01090051
KRYW 161215Z AUTO 01010G16KT 10SM CLR 11/05 A3035 RMK AO2 T01110051
KRYW 161155Z AUTO 36009KT 10SM CLR 11/05 A3035 RMK AO2 T01100052 10145 20110
KRYW 161135Z AUTO 36008KT 10SM CLR 11/05 A3035 RMK AO2 T01130052
KRYW 161115Z AUTO 01007KT 10SM CLR 12/05 A3035 RMK AO2 T01160052
KRYW 161055Z AUTO 36008KT 10SM CLR 12/05 A3034 RMK AO2 T01200052
KRYW 161035Z AUTO 02008G15KT 10SM CLR 12/05 A3033 RMK AO2 T01210052
KRYW 161015Z AUTO 02009KT 10SM CLR 13/05 A3033 RMK AO2 T01250052
KRYW 160955Z AUTO 02007G14KT 10SM CLR 13/05 A3032 RMK AO2 T01270052
KRYW 160935Z AUTO 02009G14KT 10SM CLR 13/05 A3032 RMK AO2 T01270052
KRYW 160915Z AUTO 02007G16KT 10SM CLR 13/05 A3032 RMK AO2 T01280051
KRYW 160855Z AUTO 03009G14KT 10SM CLR 13/05 A3032 RMK AO2 T01280052
KRYW 160835Z AUTO 02008G14KT 10SM CLR 13/05 A3032 RMK AO2 T01300051
KRYW 160815Z AUTO 01008G15KT 340V040 10SM CLR 13/05 A3032 RMK AO2 T01300050
KRYW 160755Z AUTO 02008KT 10SM CLR 13/05 A3033 RMK AO2 T01300049
KRYW 160735Z AUTO 02008G14KT 10SM CLR 13/05 A3033 RMK AO2 T01340047
KRYW 160715Z AUTO 03007KT 360V070 10SM CLR 14/05 A3033 RMK AO2 T01350048
KRYW 160655Z AUTO 02007KT 350V050 10SM CLR 14/05 A3033 RMK AO2 T01380047
KRYW 160635Z AUTO 03009KT 10SM CLR 14/05 A3033 RMK AO2 T01400047
KRYW 160615Z AUTO 02007KT 10SM CLR 14/05 A3033 RMK AO2 T01400050
KRYW 160555Z AUTO 02006KT 10SM CLR 15/05 A3033 RMK AO2 T01450050 10210 20145 402460145
KRYW 160535Z AUTO 01007KT 10SM CLR 15/05 A3033 RMK AO2 T01490050
KRYW 160515Z AUTO 01007KT 10SM CLR 15/05 A3032 RMK AO2 T01520050
KRYW 160455Z AUTO 01006KT 10SM CLR 15/05 A3032 RMK AO2 T01540053
KRYW 160435Z AUTO 02006G14KT 10SM CLR 16/06 A3033 RMK AO2 T01580055
KRYW 160415Z AUTO 02006G14KT 10SM CLR 16/06 A3032 RMK AO2 T01620058
KRYW 160355Z AUTO 01008KT 10SM CLR 17/06 A3032 RMK AO2 T01660060
KRYW 160335Z AUTO 01007KT 320V030 10SM CLR 17/06 A3032 RMK AO2 T01700060
KRYW 160315Z AUTO 01007G14KT 10SM CLR 17/06 A3031 RMK AO2 T01730062
KRYW 160255Z AUTO 01009KT 10SM CLR 18/06 A3031 RMK AO2 T01750063
KRYW 160235Z AUTO 02005KT 10SM CLR 18/06 A3030 RMK AO2 T01790063
KRYW 160215Z AUTO 02008KT 10SM CLR 18/06 A3030 RMK AO2 T01830063
KRYW 160155Z AUTO 02007G19KT 10SM CLR 19/07 A3030 RMK AO2 T01860065
KRYW 160135Z AUTO 02012G18KT 10SM CLR 19/07 A3029 RMK AO2 T01900068
KRYW 160115Z AUTO 01009G19KT 340V040 10SM CLR 20/07 A3028 RMK AO2 T01950070
KRYW 160055Z AUTO 36012G19KT 10SM CLR 20/07 A3027 RMK AO2 T02000073
KRYW 160035Z AUTO 01008KT 10SM CLR 20/08 A3027 RMK AO2 T02020075
KRYW 160015Z AUTO 01006KT 10SM CLR 21/08 A3026 RMK AO2 T02050077
KRYW 152355Z AUTO 01006KT 10SM SCT095 21/07 A3025 RMK AO2 T02110071 10246 20211
KRYW 152335Z AUTO 01007G17KT 10SM SCT095 22/07 A3025 RMK AO2 T02190071
KRYW 152315Z AUTO 36007G18KT 10SM CLR 23/07 A3023 RMK AO2 T02260065
KRYW 152255Z AUTO 01009G19KT 10SM CLR 23/08 A3022 RMK AO2 T02310082
KRYW 152235Z AUTO 01008G20KT 10SM CLR 24/10 A3022 RMK AO2 T02370096
KRYW 152215Z AUTO 01008G19KT 340V050 10SM CLR 24/11 A3021 RMK AO2 T02350105
KRYW 152155Z AUTO 36010G20KT 10SM CLR 24/11 A3021 RMK AO2 T02350109
KRYW 152135Z AUTO 02015G19KT 10SM CLR 24/11 A3021 RMK AO2 LTG DSNT SE T02400111
KRYW 152115Z AUTO 01011G21KT 10SM CLR 24/11 A3021 RMK AO2 T02390110
KRYW 152055Z AUTO 36008G19KT 10SM CLR 24/12 A3021 RMK AO2 T02440115
KRYW 152035Z AUTO 36014G25KT 330V030 10SM CLR 24/12 A3021 RMK AO2 LTG DSNT SE T02440118
KRYW 152015Z AUTO 01013G17KT 10SM CLR 25/13 A3022 RMK AO2 T02460128
KRYW 151955Z AUTO 36009G18KT 10SM CLR 24/13 A3022 RMK AO2 T02410132
KRYW 151935Z AUTO 36007G19KT 320V030 10SM CLR 24/14 A3022 RMK AO2 LTG DSNT SW T02420141
KRYW 151915Z AUTO 34010G18KT 300V020 10SM SCT029 24/15 A3023 RMK AO2 T02400148
KRYW 151855Z AUTO 35009G19KT 10SM SCT027 24/15 A3024 RMK AO2 T02370150
KRYW 151835Z AUTO 01013G18KT 10SM BKN025 23/15 A3025 RMK AO2 LTG DSNT SE T02330150
KRYW 151815Z AUTO 35009G14KT 10SM OVC025 23/16 A3025 RMK AO2 LTG DSNT SE T02330156
KRYW 151755Z AUTO 34009G19KT 10SM OVC025 23/16 A3025 RMK AO2 T02270156 10230 20197
KRYW 151735Z AUTO 02010G15KT 10SM OVC023 23/16 A3025 RMK AO2 T02270158
KRYW 151715Z AUTO 36013G19KT 10SM OVC021 22/16 A3026 RMK AO2 T02210157
KRYW 151655Z AUTO 36009G16KT 10SM OVC021 22/16 A3025 RMK AO2 T02180159
KRYW 151635Z AUTO 36010G17KT 330V030 10SM OVC019 21/16 A3025 RMK AO2 T02140162
KRYW 151615Z AUTO 01011G18KT 10SM OVC017 21/16 A3025 RMK AO2 T02080163
KRYW 151555Z AUTO 01010G18KT 340V040 10SM OVC015 21/17 A3024 RMK AO2 T02100166